Time;durP1;ratioP1;P1;durP2;ratioP2;P2;SDS_P1;SDS_P2;PMS_P1;PMS_P2;Temp;Humidity;BMP_temperature;BMP_pressure;BME280_temperature;BME280_humidity;BME280_pressure;Samples;Min_cycle;Max_cycle;Signal;HPM_P1;HPM_P2
2023/09/28 00:00:38;;;;;;;9.35;5.47;;;19.70;75.00;;;;;;9163388;19;20112;-70
2023/09/28 00:03:44;;;;;;;8.43;4.25;;;19.70;74.70;;;;;;9165148;19;20478;-69
2023/09/28 00:06:53;;;;;;;10.02;4.03;;;19.70;74.50;;;;;;9165710;19;20010;-67
2023/09/28 00:10:21;;;;;;;7.07;4.75;;;19.70;74.50;;;;;;9164684;19;20014;-66
2023/09/28 00:13:26;;;;;;;8.85;3.88;;;19.70;74.50;;;;;;9164640;19;20037;-66
2023/09/28 00:16:32;;;;;;;10.37;4.70;;;19.70;74.50;;;;;;9162326;19;20014;-68
2023/09/28 00:19:39;;;;;;;6.50;4.03;;;19.70;74.50;;;;;;9163545;19;20025;-69
2023/09/28 00:22:46;;;;;;;12.10;3.95;;;19.70;74.70;;;;;;9165054;19;20495;-69
2023/09/28 00:25:57;;;;;;;5.97;3.75;;;19.80;74.70;;;;;;9162744;19;20021;-68
2023/09/28 00:29:00;;;;;;;5.78;3.92;;;19.70;74.30;;;;;;9160447;19;20120;-68
2023/09/28 00:32:08;;;;;;;15.85;4.18;;;19.70;74.30;;;;;;9164123;19;20022;-68
2023/09/28 00:35:14;;;;;;;7.97;4.22;;;19.70;74.30;;;;;;9163342;19;20455;-66
2023/09/28 00:38:22;;;;;;;7.22;4.13;;;19.80;74.30;;;;;;9160404;19;20010;-69
2023/09/28 00:41:27;;;;;;;7.90;4.78;;;19.80;74.30;;;;;;9161288;19;20236;-68
2023/09/28 00:44:35;;;;;;;6.95;4.50;;;19.80;74.30;;;;;;9160766;19;20756;-69
2023/09/28 00:47:39;;;;;;;5.53;3.95;;;19.80;74.30;;;;;;9164125;19;20030;-68
2023/09/28 00:50:47;;;;;;;8.15;3.80;;;19.80;74.30;;;;;;9163855;19;20018;-68
2023/09/28 00:53:56;;;;;;;6.63;4.10;;;19.80;74.20;;;;;;9157390;19;20046;-66
2023/09/28 00:57:08;;;;;;;5.95;4.05;;;19.70;74.20;;;;;;9161115;19;20011;-67
2023/09/28 01:00:24;;;;;;;5.57;3.97;;;19.80;74.20;;;;;;9160085;19;20536;-68
2023/09/28 01:03:31;;;;;;;6.10;4.00;;;19.70;74.20;;;;;;9160305;19;20010;-66
2023/09/28 01:06:39;;;;;;;6.50;3.70;;;19.80;74.20;;;;;;9160637;19;20018;-66
2023/09/28 01:09:44;;;;;;;7.90;4.07;;;19.80;74.20;;;;;;9161318;19;20105;-69
2023/09/28 01:12:53;;;;;;;7.20;3.90;;;19.80;74.20;;;;;;9160293;19;20645;-67
2023/09/28 01:16:01;;;;;;;11.00;4.10;;;19.80;74.20;;;;;;9160094;19;20780;-68
2023/09/28 01:19:07;;;;;;;5.93;4.38;;;19.80;74.10;;;;;;9161071;19;20358;-67
2023/09/28 01:22:18;;;;;;;6.72;3.67;;;19.80;74.10;;;;;;9160149;19;20335;-68
2023/09/28 01:25:26;;;;;;;11.27;4.07;;;19.80;74.10;;;;;;9159726;19;20403;-68
2023/09/28 01:28:33;;;;;;;6.05;3.65;;;19.70;74.00;;;;;;9160572;19;20472;-68
2023/09/28 01:31:39;;;;;;;10.73;4.05;;;19.80;74.10;;;;;;9160109;19;20116;-68
2023/09/28 01:34:44;;;;;;;12.55;4.03;;;19.80;74.10;;;;;;9159454;19;20015;-69
2023/09/28 01:38:00;;;;;;;6.23;3.97;;;19.70;74.00;;;;;;9164989;19;20652;-69
2023/09/28 01:41:08;;;;;;;5.78;3.47;;;19.80;74.10;;;;;;9171083;19;20020;-67
2023/09/28 01:44:12;;;;;;;8.25;3.58;;;19.80;74.10;;;;;;9169382;19;20390;-67
2023/09/28 01:47:19;;;;;;;6.35;3.38;;;19.70;74.00;;;;;;9168899;19;20049;-69
2023/09/28 01:50:23;;;;;;;6.57;3.72;;;19.70;74.10;;;;;;9171771;19;20023;-70
2023/09/28 01:53:33;;;;;;;5.72;3.47;;;19.80;75.20;;;;;;9167301;19;20021;-69
2023/09/28 01:56:36;;;;;;;10.10;4.55;;;19.80;78.90;;;;;;9169500;19;20018;-69
2023/09/28 01:59:45;;;;;;;6.47;3.47;;;20.10;77.20;;;;;;9165378;19;20022;-68
2023/09/28 02:02:53;;;;;;;6.70;3.45;;;19.70;75.40;;;;;;9168532;19;20018;-68
2023/09/28 02:06:01;;;;;;;11.73;4.00;;;19.80;76.80;;;;;;9168710;19;20010;-68
2023/09/28 02:09:07;;;;;;;6.43;3.80;;;19.70;75.60;;;;;;9170412;19;20033;-68
2023/09/28 02:12:15;;;;;;;8.25;3.45;;;19.70;76.60;;;;;;9168052;19;20019;-66
2023/09/28 02:15:18;;;;;;;6.63;4.00;;;19.80;76.00;;;;;;9169768;19;20022;-69
2023/09/28 02:18:25;;;;;;;8.40;4.15;;;19.70;76.00;;;;;;9168174;19;20755;-67
2023/09/28 02:21:31;;;;;;;7.35;4.05;;;19.70;76.90;;;;;;9169409;19;20019;-65
2023/09/28 02:24:46;;;;;;;6.32;3.75;;;19.70;78.10;;;;;;9168396;19;20023;-67
2023/09/28 02:27:52;;;;;;;8.05;4.30;;;19.60;75.40;;;;;;9168743;19;20018;-69
2023/09/28 02:31:07;;;;;;;6.10;4.13;;;19.70;76.60;;;;;;9166536;19;20034;-68
2023/09/28 02:34:10;;;;;;;8.07;4.50;;;19.50;77.20;;;;;;9168014;19;20026;-67
2023/09/28 02:37:18;;;;;;;6.38;3.50;;;19.60;75.90;;;;;;9169024;19;20015;-69
2023/09/28 02:40:29;;;;;;;9.88;3.78;;;19.60;77.70;;;;;;9164027;19;20018;-67
2023/09/28 02:43:37;;;;;;;5.97;3.90;;;19.50;78.00;;;;;;9168274;19;20240;-67
2023/09/28 02:46:40;;;;;;;6.60;3.72;;;19.40;74.90;;;;;;9167665;19;20583;-66
2023/09/28 02:49:48;;;;;;;7.82;3.80;;;19.50;75.40;;;;;;9165447;19;20018;-69
2023/09/28 02:52:52;;;;;;;4.80;3.38;;;19.40;75.20;;;;;;9168579;19;20484;-69
2023/09/28 02:56:04;;;;;;;9.98;3.72;;;19.40;74.90;;;;;;9162139;19;20022;-69
2023/09/28 02:59:07;;;;;;;7.43;3.60;;;19.40;74.70;;;;;;9164635;19;20040;-69
2023/09/28 03:02:15;;;;;;;8.40;3.70;;;19.30;74.60;;;;;;9165245;19;20018;-69
2023/09/28 03:05:20;;;;;;;5.85;3.67;;;19.30;74.70;;;;;;9167565;19;20460;-67
2023/09/28 03:08:30;;;;;;;8.25;4.00;;;19.20;74.50;;;;;;9164666;19;20021;-66
2023/09/28 03:11:39;;;;;;;8.13;4.15;;;19.20;74.50;;;;;;9167754;19;20492;-69
2023/09/28 03:14:47;;;;;;;6.13;3.80;;;19.20;74.60;;;;;;9167245;19;20367;-68
2023/09/28 03:17:53;;;;;;;9.55;3.95;;;19.20;74.50;;;;;;9166725;19;20033;-70
2023/09/28 03:20:59;;;;;;;14.63;3.60;;;19.20;74.70;;;;;;9164884;19;20034;-67
2023/09/28 03:24:05;;;;;;;;;;;19.10;74.70;;;;;;9165945;19;20034;-67
2023/09/28 03:27:17;;;;;;;7.75;4.28;;;19.10;74.60;;;;;;9163333;19;20325;-69
2023/09/28 03:30:25;;;;;;;6.72;3.80;;;19.10;74.60;;;;;;9166845;19;20024;-68
2023/09/28 03:33:33;;;;;;;10.93;4.07;;;19.00;74.60;;;;;;9167325;19;20028;-68
2023/09/28 03:36:39;;;;;;;6.65;3.97;;;19.00;74.70;;;;;;9166366;19;20018;-69
2023/09/28 03:39:46;;;;;;;7.95;3.90;;;19.00;74.80;;;;;;9164453;19;20018;-69
2023/09/28 03:42:55;;;;;;;7.78;3.92;;;19.00;74.90;;;;;;9163890;19;20014;-69
2023/09/28 03:46:03;;;;;;;7.50;4.15;;;19.00;75.00;;;;;;9165770;19;20021;-70
2023/09/28 03:49:09;;;;;;;5.15;3.35;;;19.00;78.20;;;;;;9165515;19;20025;-68
2023/09/28 03:52:17;;;;;;;9.48;3.67;;;18.90;79.30;;;;;;9165776;19;20017;-69
2023/09/28 03:55:24;;;;;;;6.60;3.70;;;18.10;80.10;;;;;;9158606;19;20787;-67
2023/09/28 03:58:34;;;;;;;8.23;3.92;;;19.00;81.80;;;;;;9163514;19;20015;-69
2023/09/28 04:01:44;;;;;;;6.68;4.38;;;19.00;83.80;;;;;;9161966;19;20365;-66
2023/09/28 04:04:52;;;;;;;9.63;4.25;;;18.80;75.00;;;;;;9162881;19;22068;-69
2023/09/28 04:07:58;;;;;;;6.25;3.85;;;18.80;75.10;;;;;;9164349;19;20022;-68
2023/09/28 04:11:06;;;;;;;11.02;5.15;;;18.80;75.10;;;;;;9164815;19;20014;-68
2023/09/28 04:14:14;;;;;;;8.77;4.10;;;18.80;75.20;;;;;;9163321;19;20029;-68
2023/09/28 04:17:22;;;;;;;5.97;3.70;;;18.70;75.20;;;;;;9163032;19;20034;-68
2023/09/28 04:20:29;;;;;;;8.05;4.05;;;18.70;75.30;;;;;;9161933;19;20023;-68
2023/09/28 04:23:37;;;;;;;9.48;4.40;;;18.60;75.60;;;;;;9164431;19;20018;-66
2023/09/28 04:26:42;;;;;;;6.20;3.97;;;18.60;76.10;;;;;;9162282;19;20019;-68
2023/09/28 04:29:54;;;;;;;6.88;3.70;;;18.70;78.60;;;;;;9161959;19;20010;-67
2023/09/28 04:33:00;;;;;;;7.07;4.25;;;18.70;80.60;;;;;;9164115;19;20041;-67
2023/09/28 04:36:08;;;;;;;7.38;3.78;;;18.60;84.00;;;;;;9164336;19;20021;-67
2023/09/28 04:39:17;;;;;;;10.35;4.40;;;18.60;82.00;;;;;;9163671;19;20496;-66
2023/09/28 04:42:24;;;;;;;8.30;4.07;;;18.60;86.30;;;;;;9163376;19;20029;-69
2023/09/28 04:45:33;;;;;;;9.77;3.83;;;18.70;79.70;;;;;;9163019;19;20015;-66
2023/09/28 04:48:41;;;;;;;11.23;3.55;;;18.50;79.30;;;;;;9164272;19;20007;-69
2023/09/28 04:51:47;;;;;;;8.13;4.07;;;18.50;82.50;;;;;;9164091;19;20019;-67
2023/09/28 04:54:55;;;;;;;5.60;3.60;;;18.50;82.90;;;;;;9160706;19;20502;-69
2023/09/28 04:58:00;;;;;;;10.77;4.80;;;18.50;82.00;;;;;;9165752;19;20578;-69
2023/09/28 05:01:10;;;;;;;5.95;3.72;;;18.40;76.40;;;;;;9160360;19;20025;-69
2023/09/28 05:04:16;;;;;;;10.40;3.58;;;18.40;76.90;;;;;;9160681;19;20010;-70
2023/09/28 05:07:23;;;;;;;7.70;4.32;;;18.40;77.40;;;;;;9162591;19;20019;-68
2023/09/28 05:10:29;;;;;;;6.30;3.85;;;18.30;77.40;;;;;;9161716;19;20014;-67
2023/09/28 05:13:36;;;;;;;10.70;4.18;;;18.40;77.90;;;;;;9171834;19;20014;-69
2023/09/28 05:16:44;;;;;;;9.30;4.03;;;18.30;78.40;;;;;;9169899;19;20488;-67
2023/09/28 05:19:51;;;;;;;13.32;4.28;;;18.30;78.20;;;;;;9167882;19;20460;-68
2023/09/28 05:22:57;;;;;;;8.20;4.15;;;18.30;78.70;;;;;;9171311;19;20025;-68
2023/09/28 05:26:06;;;;;;;8.35;4.60;;;18.30;79.40;;;;;;9171648;19;20596;-69
2023/09/28 05:29:12;;;;;;;7.75;3.83;;;18.30;79.50;;;;;;9168505;19;20011;-66
2023/09/28 05:32:22;;;;;;;7.18;3.97;;;18.20;80.80;;;;;;9171571;19;20480;-69
2023/09/28 05:35:27;;;;;;;8.85;3.83;;;18.20;82.60;;;;;;9170766;19;20014;-67
2023/09/28 05:38:35;;;;;;;6.47;4.20;;;18.20;84.30;;;;;;9169155;19;20019;-66
2023/09/28 05:41:40;;;;;;;7.45;4.10;;;18.20;78.60;;;;;;9168612;19;20048;-69
2023/09/28 05:44:48;;;;;;;8.40;4.03;;;18.20;79.00;;;;;;9169084;19;20010;-68
2023/09/28 05:47:56;;;;;;;5.85;3.45;;;18.10;79.50;;;;;;9170370;19;20074;-69
2023/09/28 05:51:04;;;;;;;11.10;4.32;;;18.20;80.70;;;;;;9167963;19;20021;-68
2023/09/28 05:54:09;;;;;;;8.60;4.35;;;18.10;82.30;;;;;;9166423;19;20011;-68
2023/09/28 05:57:16;;;;;;;8.40;4.35;;;18.10;83.00;;;;;;9170059;19;20767;-68
2023/09/28 06:00:22;;;;;;;9.98;5.05;;;18.10;83.60;;;;;;9167967;19;20034;-69
2023/09/28 06:03:32;;;;;;;7.93;4.70;;;18.00;84.50;;;;;;9170154;19;20018;-70
2023/09/28 06:06:37;;;;;;;11.07;3.90;;;18.00;84.20;;;;;;9167949;19;20707;-67
2023/09/28 06:09:45;;;;;;;9.15;4.13;;;18.00;85.90;;;;;;9169795;19;20015;-67
2023/09/28 06:12:50;;;;;;;16.15;4.95;;;18.00;88.10;;;;;;9168835;19;20014;-68
2023/09/28 06:15:57;;;;;;;14.40;5.03;;;18.00;87.50;;;;;;9164779;19;20386;-68
2023/09/28 06:19:06;;;;;;;9.82;5.03;;;18.10;84.00;;;;;;9142237;19;20107;-69
2023/09/28 06:22:13;;;;;;;10.68;4.82;;;18.00;81.50;;;;;;9137313;19;20019;-69
2023/09/28 06:25:19;;;;;;;11.05;5.03;;;18.00;81.80;;;;;;9164054;19;20480;-71
2023/09/28 06:28:26;;;;;;;12.50;4.95;;;17.90;82.00;;;;;;9164028;19;20368;-69
2023/09/28 06:31:32;;;;;;;11.38;5.32;;;17.90;82.20;;;;;;9167559;19;20609;-69
2023/09/28 06:34:42;;;;;;;10.35;4.95;;;18.00;82.50;;;;;;9167279;19;20014;-68
2023/09/28 06:37:47;;;;;;;12.57;5.15;;;17.90;82.80;;;;;;9164791;19;20018;-70
2023/09/28 06:40:55;;;;;;;7.70;4.32;;;18.00;83.60;;;;;;9161926;19;20007;-68
2023/09/28 06:44:00;;;;;;;14.63;5.43;;;18.00;83.50;;;;;;9167639;19;20563;-68
2023/09/28 06:47:11;;;;;;;7.05;4.10;;;18.00;84.40;;;;;;9160542;19;20098;-69
2023/09/28 06:50:19;;;;;;;14.30;4.78;;;18.10;84.60;;;;;;9166353;19;20102;-68
2023/09/28 06:53:27;;;;;;;9.45;4.03;;;18.00;84.90;;;;;;9164081;19;20689;-66
2023/09/28 06:56:34;;;;;;;11.43;4.82;;;18.00;84.90;;;;;;9166159;19;20052;-68
2023/09/28 06:59:42;;;;;;;7.32;3.78;;;18.10;85.10;;;;;;9162963;19;20010;-67
2023/09/28 07:02:47;;;;;;;8.40;3.92;;;18.10;85.20;;;;;;9160317;19;20640;-68
2023/09/28 07:05:58;;;;;;;10.23;4.07;;;18.10;85.80;;;;;;9162260;19;20030;-69
2023/09/28 07:09:05;;;;;;;12.18;4.47;;;18.20;85.30;;;;;;9162110;19;20126;-67
2023/09/28 07:12:12;;;;;;;14.63;4.65;;;18.20;85.30;;;;;;9160738;19;20034;-67
2023/09/28 07:15:18;;;;;;;8.77;4.10;;;18.20;85.60;;;;;;9161113;19;20119;-68
2023/09/28 07:18:25;;;;;;;13.43;4.03;;;18.20;85.70;;;;;;9161125;19;20010;-69
2023/09/28 07:21:34;;;;;;;14.05;3.63;;;18.30;86.30;;;;;;9160217;19;20018;-69
2023/09/28 07:24:42;;;;;;;16.73;3.40;;;18.30;86.10;;;;;;9163477;19;20770;-67
2023/09/28 07:27:49;;;;;;;14.82;4.28;;;18.50;83.60;;;;;;9162241;19;20102;-67
2023/09/28 07:30:56;;;;;;;12.00;3.58;;;18.40;81.90;;;;;;9166178;19;20018;-67
2023/09/28 07:34:03;;;;;;;15.70;4.10;;;18.60;82.30;;;;;;9162240;19;20510;-67
2023/09/28 07:37:13;;;;;;;16.08;3.28;;;18.50;82.10;;;;;;9164965;19;20014;-68
2023/09/28 07:40:24;;;;;;;17.00;3.90;;;18.60;84.40;;;;;;9165123;19;20014;-66
2023/09/28 07:43:52;;;;;;;17.63;3.63;;;18.60;84.90;;;;;;9163723;19;20018;-67
2023/09/28 07:46:57;;;;;;;11.20;3.35;;;18.60;78.00;;;;;;9164583;19;20163;-67
2023/09/28 07:50:05;;;;;;;16.83;4.28;;;18.60;78.00;;;;;;9165428;19;20022;-66
2023/09/28 07:53:13;;;;;;;15.07;4.10;;;18.70;78.00;;;;;;9163842;19;20615;-68
2023/09/28 07:56:21;;;;;;;17.50;4.30;;;18.70;78.80;;;;;;9164407;19;20003;-68
2023/09/28 07:59:26;;;;;;;21.33;4.57;;;18.90;79.30;;;;;;9165859;19;20026;-66
2023/09/28 08:02:34;;;;;;;18.38;4.35;;;19.00;80.60;;;;;;9162861;19;20018;-67
2023/09/28 08:05:39;;;;;;;14.65;4.15;;;19.10;79.50;;;;;;9162684;19;20102;-66
2023/09/28 08:08:49;;;;;;;23.08;3.80;;;19.10;79.40;;;;;;9164919;19;20014;-67
2023/09/28 08:11:55;;;;;;;28.17;3.92;;;19.20;79.40;;;;;;9163811;19;20026;-67
2023/09/28 08:15:03;;;;;;;20.95;3.17;;;19.30;83.20;;;;;;9162869;19;20007;-67
2023/09/28 08:18:09;;;;;;;24.40;4.60;;;19.40;81.40;;;;;;9161596;19;20019;-69
2023/09/28 08:21:17;;;;;;;23.17;4.20;;;19.60;82.50;;;;;;9161244;19;20011;-68
2023/09/28 08:24:25;;;;;;;22.90;4.38;;;19.70;83.50;;;;;;9164747;19;20007;-68
2023/09/28 08:27:32;;;;;;;30.73;4.30;;;19.80;84.40;;;;;;9164725;19;20011;-67
2023/09/28 08:30:38;;;;;;;29.27;4.57;;;19.90;88.10;;;;;;9164308;19;20858;-68
2023/09/28 08:33:45;;;;;;;22.10;3.78;;;20.00;84.80;;;;;;9166416;19;20029;-67
2023/09/28 08:36:50;;;;;;;28.50;5.88;;;20.20;87.50;;;;;;9163898;19;20027;-67
2023/09/28 08:40:02;;;;;;;29.65;4.72;;;20.30;87.30;;;;;;9166402;19;20547;-68
2023/09/28 08:43:10;;;;;;;21.05;3.95;;;20.50;87.90;;;;;;9162080;19;20018;-68
2023/09/28 08:46:18;;;;;;;32.00;4.40;;;20.50;90.30;;;;;;9164082;19;20408;-67
2023/09/28 08:49:37;;;;;;;18.88;3.53;;;20.70;83.50;;;;;;9165721;19;20014;-66
2023/09/28 08:52:45;;;;;;;28.90;5.00;;;20.90;83.70;;;;;;9164257;19;20015;-67
2023/09/28 08:55:53;;;;;;;32.53;5.10;;;21.00;79.90;;;;;;9159186;19;20017;-66
2023/09/28 08:59:02;;;;;;;22.60;4.50;;;21.00;84.90;;;;;;9163885;19;20011;-67
2023/09/28 09:02:08;;;;;;;37.95;6.07;;;21.20;79.80;;;;;;9163357;19;20459;-67
2023/09/28 09:05:15;;;;;;;23.50;4.30;;;21.40;82.00;;;;;;9164107;19;20019;-67
2023/09/28 09:08:24;;;;;;;24.52;4.90;;;21.50;79.00;;;;;;9164347;19;20026;-69
2023/09/28 09:11:37;;;;;;;31.73;4.88;;;21.60;77.80;;;;;;9164605;19;20808;-68
2023/09/28 09:14:42;;;;;;;33.50;3.83;;;21.70;77.60;;;;;;9164479;19;20014;-68
2023/09/28 09:17:50;;;;;;;22.27;4.60;;;21.90;77.40;;;;;;9164256;19;20852;-67
2023/09/28 09:21:00;;;;;;;24.80;4.47;;;22.00;77.70;;;;;;9164061;19;20371;-69
2023/09/28 09:24:10;;;;;;;22.20;4.32;;;22.50;77.10;;;;;;9158429;19;20014;-69
2023/09/28 09:27:19;;;;;;;31.48;3.92;;;22.30;76.30;;;;;;9163145;19;20021;-69
2023/09/28 09:30:29;;;;;;;21.55;3.63;;;22.40;79.90;;;;;;9163917;19;20567;-69
2023/09/28 09:33:36;;;;;;;20.70;3.58;;;22.50;78.20;;;;;;9162604;19;20344;-69
2023/09/28 09:36:43;;;;;;;28.30;4.03;;;22.50;76.70;;;;;;9162881;19;20492;-68
2023/09/28 09:39:49;;;;;;;32.97;4.70;;;22.60;76.60;;;;;;9160777;19;20530;-68
2023/09/28 09:43:08;;;;;;;30.00;3.92;;;22.70;76.30;;;;;;9160247;19;20011;-69
2023/09/28 09:46:14;;;;;;;25.52;4.03;;;22.70;77.00;;;;;;9161194;19;20492;-69
2023/09/28 09:49:24;;;;;;;24.52;4.68;;;22.80;77.30;;;;;;9161282;19;20021;-69
2023/09/28 09:52:31;;;;;;;23.25;3.53;;;22.90;79.30;;;;;;9163046;19;20013;-68
2023/09/28 09:55:43;;;;;;;22.40;4.00;;;22.90;79.20;;;;;;9157227;19;20019;-69
2023/09/28 09:59:01;;;;;;;24.70;3.28;;;23.00;79.40;;;;;;9166164;19;20010;-69
2023/09/28 10:02:14;;;;;;;26.02;5.20;;;23.20;79.70;;;;;;9171636;19;20030;-68
2023/09/28 10:05:22;;;;;;;30.65;4.78;;;23.20;80.50;;;;;;9173431;19;20018;-68
2023/09/28 10:08:34;;;;;;;28.27;4.57;;;23.10;78.30;;;;;;9172182;19;20030;-67
2023/09/28 10:11:41;;;;;;;23.75;4.35;;;23.30;77.70;;;;;;9173107;19;20349;-67
2023/09/28 10:14:52;;;;;;;23.85;3.88;;;23.20;78.40;;;;;;9172672;19;20019;-67
2023/09/28 10:17:57;;;;;;;28.73;5.07;;;23.20;77.30;;;;;;9171502;19;20018;-68
2023/09/28 10:21:06;;;;;;;21.65;4.30;;;23.10;77.90;;;;;;9170679;19;20006;-68
2023/09/28 10:24:12;;;;;;;27.73;4.28;;;23.20;74.50;;;;;;9167113;19;20833;-69
2023/09/28 10:27:20;;;;;;;26.80;4.10;;;23.10;72.30;;;;;;9169426;19;20377;-68
2023/09/28 10:30:29;;;;;;;29.67;4.30;;;23.10;77.30;;;;;;9171314;19;20386;-68
2023/09/28 10:33:36;;;;;;;26.92;3.47;;;23.10;75.90;;;;;;9172282;19;20025;-68
2023/09/28 10:36:42;;;;;;;23.60;4.10;;;23.00;72.10;;;;;;9168750;19;20017;-67
2023/09/28 10:39:54;;;;;;;31.52;4.97;;;22.90;72.30;;;;;;9171249;19;20033;-67
2023/09/28 10:43:10;;;;;;;32.33;5.80;;;23.00;73.70;;;;;;9166731;19;20027;-67
2023/09/28 10:46:20;;;;;;;31.45;4.00;;;22.90;75.30;;;;;;9166136;19;20018;-67
2023/09/28 10:49:26;;;;;;;24.10;3.67;;;22.90;72.90;;;;;;9165261;19;20014;-67
2023/09/28 10:52:34;;;;;;;29.15;5.13;;;22.90;74.70;;;;;;9171329;19;20011;-69
2023/09/28 10:55:41;;;;;;;39.05;4.47;;;22.80;75.90;;;;;;9168265;19;20014;-67
2023/09/28 10:58:49;;;;;;;21.65;3.92;;;22.80;76.70;;;;;;9169843;19;20014;-68
2023/09/28 11:01:57;;;;;;;29.38;5.28;;;22.90;77.50;;;;;;9170462;19;20508;-68
2023/09/28 11:05:07;;;;;;;21.27;4.10;;;22.90;74.80;;;;;;9165842;19;20026;-67
2023/09/28 11:08:14;;;;;;;23.33;4.65;;;22.90;73.90;;;;;;9167971;19;20029;-67
2023/09/28 11:11:22;;;;;;;21.35;3.30;;;23.00;74.00;;;;;;9168384;19;20022;-67
2023/09/28 11:14:28;;;;;;;20.17;3.92;;;23.00;74.40;;;;;;9170290;19;20527;-66
2023/09/28 11:17:38;;;;;;;23.20;4.25;;;23.10;74.20;;;;;;9166995;19;20575;-69
2023/09/28 11:20:43;;;;;;;19.10;3.33;;;23.10;75.70;;;;;;9167311;19;20025;-67
2023/09/28 11:23:53;;;;;;;22.17;3.92;;;23.20;75.00;;;;;;9165665;19;20022;-68
2023/09/28 11:26:59;;;;;;;22.95;3.70;;;23.40;76.90;;;;;;9168345;19;20033;-68
2023/09/28 11:30:19;;;;;;;25.02;4.30;;;23.20;69.50;;;;;;9168588;19;20030;-69
2023/09/28 11:33:27;;;;;;;20.25;4.78;;;23.30;69.40;;;;;;9165202;19;20487;-67
2023/09/28 11:36:34;;;;;;;24.80;4.32;;;23.40;69.40;;;;;;9167112;19;20027;-69
2023/09/28 11:39:41;;;;;;;26.17;4.00;;;23.40;69.30;;;;;;9167413;19;20022;-68
2023/09/28 11:42:50;;;;;;;29.73;5.30;;;23.50;69.20;;;;;;9165900;19;20381;-67
2023/09/28 11:45:56;;;;;;;25.17;3.50;;;23.60;69.30;;;;;;9167489;19;20421;-67
2023/09/28 11:49:13;;;;;;;24.88;4.60;;;23.60;69.70;;;;;;9165957;19;20022;-67
2023/09/28 11:52:19;;;;;;;22.77;4.05;;;23.70;73.00;;;;;;9166174;19;20101;-68
2023/09/28 11:55:28;;;;;;;19.75;3.72;;;23.80;75.60;;;;;;9158837;19;20019;-67
2023/09/28 11:58:35;;;;;;;22.70;3.03;;;;;;;;;;9165115;19;20047;-68
2023/09/28 12:01:42;;;;;;;21.73;4.10;;;23.80;67.90;;;;;;9163957;19;20286;-69
2023/09/28 12:04:51;;;;;;;23.75;3.50;;;22.50;67.50;;;;;;9164159;19;20661;-68
2023/09/28 12:07:59;;;;;;;24.63;3.67;;;25.10;69.60;;;;;;9165450;19;20660;-69
2023/09/28 12:11:05;;;;;;;21.85;3.40;;;23.90;68.00;;;;;;9163922;19;20102;-69
2023/09/28 12:14:13;;;;;;;14.43;3.25;;;23.90;67.90;;;;;;9163932;19;20492;-69
2023/09/28 12:17:18;;;;;;;22.55;3.40;;;23.90;67.60;;;;;;9166227;19;20025;-69
2023/09/28 12:20:29;;;;;;;32.15;4.47;;;23.90;67.40;;;;;;9164903;19;20428;-69
2023/09/28 12:23:35;;;;;;;16.75;4.22;;;23.80;67.10;;;;;;9161564;19;20447;-68
2023/09/28 12:26:42;;;;;;;21.75;4.00;;;23.80;67.20;;;;;;9161955;19;20014;-70
2023/09/28 12:29:48;;;;;;;23.30;3.95;;;23.80;67.20;;;;;;9162351;19;20055;-67
2023/09/28 12:32:56;;;;;;;16.50;3.08;;;23.80;67.10;;;;;;9160522;19;20266;-69
2023/09/28 12:36:05;;;;;;;16.63;3.45;;;23.80;67.00;;;;;;9163348;19;20097;-70
2023/09/28 12:39:16;;;;;;;24.95;3.42;;;23.80;66.80;;;;;;9160078;19;20021;-67
2023/09/28 12:42:21;;;;;;;15.40;3.05;;;23.80;66.80;;;;;;9159953;19;20023;-70
2023/09/28 12:45:29;;;;;;;16.40;3.35;;;23.80;66.70;;;;;;9159634;19;21590;-69
2023/09/28 12:48:35;;;;;;;26.85;4.47;;;23.80;66.70;;;;;;9162102;19;20911;-71
2023/09/28 12:51:47;;;;;;;20.55;4.50;;;23.80;66.60;;;;;;9160633;19;20033;-69
2023/09/28 12:54:52;;;;;;;17.23;3.90;;;23.70;66.40;;;;;;9159711;19;20022;-70
2023/09/28 12:58:00;;;;;;;16.67;3.65;;;23.70;66.40;;;;;;9161261;19;20018;-68
2023/09/28 13:01:06;;;;;;;17.88;3.47;;;23.60;66.30;;;;;;9162475;19;20487;-69
2023/09/28 13:04:13;;;;;;;21.00;4.10;;;23.60;66.20;;;;;;9158703;19;20019;-69
2023/09/28 13:07:22;;;;;;;21.30;3.03;;;23.60;70.70;;;;;;9161890;19;20022;-68
2023/09/28 13:10:30;;;;;;;19.73;3.80;;;;;;;;;;9161178;19;20010;-69
2023/09/28 13:13:39;;;;;;;19.02;3.72;;;23.40;65.70;;;;;;9162998;19;20090;-71
2023/09/28 13:16:47;;;;;;;17.27;2.97;;;23.40;66.30;;;;;;9159689;19;20025;-68
2023/09/28 13:19:52;;;;;;;24.30;3.78;;;23.40;66.30;;;;;;9160604;19;20027;-68
2023/09/28 13:23:02;;;;;;;23.00;3.70;;;23.40;66.40;;;;;;9159979;19;20332;-68
2023/09/28 13:26:08;;;;;;;19.63;3.88;;;23.40;66.20;;;;;;9158076;19;20030;-68
2023/09/28 13:29:17;;;;;;;24.55;3.30;;;23.40;66.20;;;;;;9159513;19;20014;-68
2023/09/28 13:32:27;;;;;;;24.90;4.55;;;23.40;66.10;;;;;;9163311;19;20030;-68
2023/09/28 13:35:35;;;;;;;18.38;3.17;;;23.40;66.10;;;;;;9169928;19;20017;-73
2023/09/28 13:38:43;;;;;;;19.27;3.78;;;23.50;68.80;;;;;;9170037;19;20365;-70
2023/09/28 13:41:51;;;;;;;25.02;4.05;;;23.30;65.70;;;;;;9169844;19;20025;-69
2023/09/28 13:44:59;;;;;;;29.50;3.55;;;23.30;65.80;;;;;;9166352;19;20015;-68
2023/09/28 13:48:08;;;;;;;20.17;3.45;;;23.30;65.70;;;;;;9164959;19;20029;-67
2023/09/28 13:51:14;;;;;;;16.60;3.50;;;23.30;65.70;;;;;;9167355;19;20021;-68
2023/09/28 13:54:24;;;;;;;23.33;3.70;;;23.30;65.70;;;;;;9164331;19;20025;-69
2023/09/28 13:57:29;;;;;;;16.58;3.33;;;23.20;66.20;;;;;;9170762;19;20093;-69
2023/09/28 14:00:39;;;;;;;15.55;3.67;;;23.20;65.60;;;;;;9166998;19;20018;-68
2023/09/28 14:03:45;;;;;;;19.10;3.38;;;23.20;65.60;;;;;;9169093;19;20477;-69
2023/09/28 14:06:54;;;;;;;13.10;3.35;;;23.20;65.50;;;;;;9165421;19;20002;-70
2023/09/28 14:10:03;;;;;;;12.75;2.88;;;23.20;65.50;;;;;;9168544;19;20371;-71
2023/09/28 14:13:10;;;;;;;19.15;3.50;;;23.20;65.30;;;;;;9170953;19;20017;-72
2023/09/28 14:16:16;;;;;;;22.02;3.10;;;23.30;65.70;;;;;;9169312;19;20031;-69
2023/09/28 14:19:23;;;;;;;19.83;3.60;;;23.20;65.30;;;;;;9170787;19;20014;-69
2023/09/28 14:22:28;;;;;;;19.90;3.55;;;23.20;65.30;;;;;;9166622;19;20043;-69
2023/09/28 14:25:38;;;;;;;17.92;3.05;;;23.20;65.70;;;;;;9166399;19;20025;-70
2023/09/28 14:28:44;;;;;;;17.15;3.92;;;23.10;65.40;;;;;;9166378;19;20060;-69
2023/09/28 14:31:51;;;;;;;17.00;3.30;;;23.10;65.40;;;;;;9167371;19;20618;-72
2023/09/28 14:34:57;;;;;;;20.88;4.22;;;23.20;66.10;;;;;;9164071;19;20360;-69
2023/09/28 14:38:05;;;;;;;20.63;4.10;;;23.10;65.40;;;;;;9166054;19;20011;-69
2023/09/28 14:41:13;;;;;;;22.05;3.50;;;23.10;65.20;;;;;;9168143;19;20025;-69
2023/09/28 14:44:21;;;;;;;18.20;3.65;;;23.00;64.70;;;;;;9159974;19;20011;-72
2023/09/28 14:47:26;;;;;;;18.48;3.17;;;23.10;65.30;;;;;;9162824;19;20026;-69
2023/09/28 14:50:34;;;;;;;16.42;3.80;;;23.00;65.30;;;;;;9165238;19;20384;-69
2023/09/28 14:53:40;;;;;;;22.13;3.65;;;23.00;64.80;;;;;;9164446;19;20036;-69
2023/09/28 14:56:51;;;;;;;23.52;3.72;;;23.00;65.20;;;;;;9166232;19;20022;-68
2023/09/28 14:59:56;;;;;;;23.08;5.50;;;22.90;65.10;;;;;;9166517;19;20022;-69
2023/09/28 15:03:04;;;;;;;20.00;3.70;;;22.90;65.20;;;;;;9165141;19;20488;-69
2023/09/28 15:06:10;;;;;;;18.27;4.55;;;22.90;65.30;;;;;;9164279;19;20843;-69
2023/09/28 15:09:18;;;;;;;16.38;2.55;;;22.80;65.20;;;;;;9163060;19;20353;-69
2023/09/28 15:12:27;;;;;;;17.77;3.78;;;22.80;65.20;;;;;;9166252;19;20033;-69
2023/09/28 15:15:34;;;;;;;21.48;4.13;;;23.60;65.80;;;;;;9165273;19;20014;-68
2023/09/28 15:18:40;;;;;;;19.73;3.72;;;22.60;65.70;;;;;;9166599;19;20023;-70
2023/09/28 15:21:47;;;;;;;22.08;4.10;;;22.60;65.30;;;;;;9161861;19;20090;-69
2023/09/28 15:24:53;;;;;;;26.05;3.70;;;22.50;65.30;;;;;;9165951;19;20022;-70
2023/09/28 15:28:03;;;;;;;19.20;3.60;;;22.50;65.40;;;;;;9163320;19;20011;-70
2023/09/28 15:31:08;;;;;;;25.90;3.88;;;22.40;65.50;;;;;;9167532;19;20055;-69
2023/09/28 15:34:18;;;;;;;18.35;3.75;;;22.40;65.50;;;;;;9167514;19;20637;-70
2023/09/28 15:37:23;;;;;;;16.92;3.92;;;22.30;65.60;;;;;;9167314;19;20024;-69
2023/09/28 15:40:37;;;;;;;11.77;2.58;;;22.30;65.70;;;;;;9161015;19;20439;-69
2023/09/28 15:43:45;;;;;;;22.05;3.47;;;22.30;65.80;;;;;;9167223;19;20063;-70
2023/09/28 15:46:53;;;;;;;16.60;3.38;;;22.20;65.90;;;;;;9165819;19;20728;-71
2023/09/28 15:49:58;;;;;;;24.63;3.58;;;22.20;66.00;;;;;;9165128;19;20051;-69
2023/09/28 15:53:09;;;;;;;13.27;3.28;;;22.20;66.00;;;;;;9166292;19;20010;-69
2023/09/28 15:56:15;;;;;;;22.88;3.60;;;22.20;66.00;;;;;;9166260;19;20018;-69
2023/09/28 15:59:25;;;;;;;17.95;3.42;;;22.10;66.00;;;;;;9165626;19;20010;-70
2023/09/28 16:02:30;;;;;;;9.88;2.65;;;22.10;66.10;;;;;;9165677;19;20010;-69
2023/09/28 16:05:38;;;;;;;22.15;3.78;;;22.10;67.00;;;;;;9167811;19;20373;-69
2023/09/28 16:08:43;;;;;;;15.85;2.92;;;22.10;66.20;;;;;;9167433;19;20050;-68